createdAt,value
2023-05-14T00:01:02.433Z,14.72
2023-05-14T00:03:04.191Z,14.73
2023-05-14T00:05:06.180Z,14.77
2023-05-14T00:07:07.663Z,14.83
2023-05-14T00:09:09.532Z,14.83
2023-05-14T00:11:11.113Z,14.77
2023-05-14T00:13:12.558Z,14.80
2023-05-14T00:15:14.079Z,14.73
2023-05-14T00:17:15.811Z,14.65
2023-05-14T00:19:17.366Z,14.58
2023-05-14T00:21:19.417Z,14.52
2023-05-14T00:23:21.398Z,14.56
2023-05-14T00:25:22.875Z,14.50
2023-05-14T00:27:24.299Z,14.50
2023-05-14T00:29:25.785Z,14.50
2023-05-14T00:31:27.280Z,14.56
2023-05-14T00:33:28.806Z,14.63
2023-05-14T00:35:30.448Z,14.66
2023-05-14T00:37:31.976Z,14.65
2023-05-14T00:39:33.796Z,14.59
2023-05-14T00:41:35.209Z,14.62
2023-05-14T00:43:36.700Z,14.61
2023-05-14T00:45:38.639Z,14.64
2023-05-14T00:47:40.280Z,14.61
2023-05-14T00:49:42.004Z,14.61
2023-05-14T00:51:46.835Z,14.65
2023-05-14T00:53:48.902Z,14.67
2023-05-14T00:55:50.615Z,14.63
2023-05-14T00:57:52.145Z,14.59
2023-05-14T00:59:54.008Z,14.60
2023-05-14T01:01:55.530Z,14.57
2023-05-14T01:03:58.101Z,14.48
2023-05-14T01:06:07.169Z,14.41
2023-05-14T01:08:14.234Z,14.35
2023-05-14T01:10:17.666Z,14.36
2023-05-14T01:12:19.860Z,14.42
2023-05-14T01:14:22.807Z,14.46
2023-05-14T01:16:24.811Z,14.51
2023-05-14T01:18:26.381Z,14.54
2023-05-14T01:20:27.845Z,14.58
2023-05-14T01:22:29.388Z,14.58
2023-05-14T01:24:30.817Z,14.62
2023-05-14T01:26:32.384Z,14.58
2023-05-14T01:28:33.958Z,14.55
2023-05-14T01:30:40.475Z,14.54
2023-05-14T01:32:41.999Z,14.48
2023-05-14T01:34:43.455Z,14.33
2023-05-14T01:36:44.925Z,14.35
2023-05-14T01:38:47.228Z,14.30
2023-05-14T01:40:48.723Z,14.34
2023-05-14T01:42:52.015Z,14.34
2023-05-14T01:44:53.504Z,14.38
2023-05-14T01:46:55.062Z,14.41
2023-05-14T01:48:56.504Z,14.43
2023-05-14T01:50:57.959Z,14.48
2023-05-14T01:52:59.502Z,14.43
2023-05-14T01:55:01.141Z,14.42
2023-05-14T01:57:02.623Z,14.36
2023-05-14T01:59:04.155Z,14.27
2023-05-14T02:01:05.635Z,14.26
2023-05-14T02:03:07.231Z,14.22
2023-05-14T02:05:09.097Z,14.23
2023-05-14T02:07:10.786Z,14.26
2023-05-14T02:09:12.225Z,14.24
2023-05-14T02:11:13.693Z,14.11
2023-05-14T02:13:15.164Z,14.06
2023-05-14T02:15:16.665Z,14.09
2023-05-14T02:17:18.259Z,14.02
2023-05-14T02:19:19.687Z,13.94
2023-05-14T02:21:21.316Z,13.97
2023-05-14T02:23:34.164Z,14.00
2023-05-14T02:25:39.603Z,14.00
2023-05-14T02:27:41.129Z,14.00
2023-05-14T02:29:42.629Z,13.97
2023-05-14T02:31:44.132Z,13.92
2023-05-14T02:33:45.817Z,13.81
2023-05-14T02:35:47.255Z,13.76
2023-05-14T02:37:48.777Z,13.77
2023-05-14T02:39:50.256Z,13.72
2023-05-14T02:41:51.728Z,13.73
2023-05-14T02:43:53.783Z,13.73
2023-05-14T02:45:55.323Z,13.78
2023-05-14T02:47:56.902Z,13.84
2023-05-14T02:49:58.528Z,13.86
2023-05-14T02:52:00.964Z,13.87
2023-05-14T02:54:02.391Z,13.88
2023-05-14T02:56:04.056Z,13.89
2023-05-14T02:58:05.573Z,13.84
2023-05-14T03:00:07.529Z,13.85
2023-05-14T03:02:09.348Z,13.85
2023-05-14T03:04:11.329Z,13.88
2023-05-14T03:06:12.784Z,13.89
2023-05-14T03:08:14.224Z,13.90
2023-05-14T03:10:15.725Z,13.91
2023-05-14T03:12:18.160Z,13.65
2023-05-14T03:14:19.591Z,13.54
2023-05-14T03:16:21.154Z,13.59
2023-05-14T03:18:22.878Z,13.65
2023-05-14T03:20:25.030Z,13.72
2023-05-14T03:22:26.743Z,13.78
2023-05-14T03:24:28.206Z,13.75
2023-05-14T03:26:29.644Z,13.77
2023-05-14T03:28:31.081Z,13.47
2023-05-14T03:30:32.544Z,13.40
2023-05-14T03:32:34.092Z,13.36
2023-05-14T03:34:35.648Z,13.30
2023-05-14T03:36:39.007Z,13.26
2023-05-14T03:38:40.444Z,13.25
2023-05-14T03:40:41.947Z,13.13
2023-05-14T03:42:43.470Z,13.11
2023-05-14T03:44:45.079Z,13.01
2023-05-14T03:46:46.623Z,12.93
2023-05-14T03:48:48.232Z,12.85
2023-05-14T03:50:49.713Z,12.89
2023-05-14T03:52:52.469Z,12.91
2023-05-14T03:54:53.971Z,13.01
2023-05-14T03:56:55.472Z,13.07
2023-05-14T03:58:56.893Z,12.96
2023-05-14T04:00:58.375Z,12.93
2023-05-14T04:02:59.930Z,12.94
2023-05-14T04:05:01.547Z,13.01
2023-05-14T04:07:03.102Z,13.03
2023-05-14T04:09:04.544Z,13.07
2023-05-14T04:11:06.071Z,13.09
2023-05-14T04:13:07.731Z,13.09
2023-05-14T04:15:09.435Z,13.07
2023-05-14T04:17:11.111Z,13.10
2023-05-14T04:19:12.685Z,13.14
2023-05-14T04:21:14.164Z,13.10
2023-05-14T04:23:16.137Z,13.17
2023-05-14T04:25:18.614Z,13.17
2023-05-14T04:27:21.226Z,13.21
2023-05-14T04:29:22.684Z,13.18
2023-05-14T04:31:24.185Z,13.20
2023-05-14T04:33:25.721Z,13.23
2023-05-14T04:35:27.679Z,13.18
2023-05-14T04:37:29.213Z,13.18
2023-05-14T04:39:30.689Z,13.24
2023-05-14T04:41:32.211Z,13.26
2023-05-14T04:43:33.741Z,13.30
2023-05-14T04:45:35.523Z,13.28
2023-05-14T04:47:37.013Z,13.19
2023-05-14T04:49:38.492Z,13.17
2023-05-14T04:51:39.968Z,13.17
2023-05-14T04:53:41.401Z,13.22
2023-05-14T04:55:42.864Z,13.32
2023-05-14T04:57:44.289Z,13.37
2023-05-14T04:59:45.938Z,13.43
2023-05-14T05:01:47.549Z,13.49
2023-05-14T05:03:49.139Z,13.50
2023-05-14T05:05:50.783Z,13.50
2023-05-14T05:07:52.272Z,13.48
2023-05-14T05:09:53.751Z,13.52
2023-05-14T05:11:55.234Z,13.49
2023-05-14T05:13:56.692Z,13.47
2023-05-14T05:15:58.373Z,13.43
2023-05-14T05:17:59.868Z,13.42
2023-05-14T05:20:01.459Z,13.30
2023-05-14T05:22:02.944Z,13.27
2023-05-14T05:24:04.559Z,13.24
2023-05-14T05:26:06.055Z,13.20
2023-05-14T05:28:07.510Z,13.20
2023-05-14T05:30:09.186Z,13.13
2023-05-14T05:32:10.778Z,13.07
2023-05-14T05:34:12.271Z,13.03
2023-05-14T05:36:13.709Z,12.99
2023-05-14T05:38:15.713Z,13.00
2023-05-14T05:40:17.173Z,13.04
2023-05-14T05:42:18.620Z,13.02
2023-05-14T05:44:20.142Z,13.02
2023-05-14T05:46:21.618Z,13.03
2023-05-14T05:48:23.149Z,12.96
2023-05-14T05:50:24.897Z,12.94
2023-05-14T05:52:26.594Z,12.88
2023-05-14T05:54:28.074Z,12.82
2023-05-14T05:56:29.520Z,12.80
2023-05-14T05:58:31.008Z,12.84
2023-05-14T06:00:32.582Z,12.78
2023-05-14T06:02:34.159Z,12.76
2023-05-14T06:04:35.703Z,12.73
2023-05-14T06:06:37.176Z,12.65
2023-05-14T06:08:38.638Z,12.62
2023-05-14T06:10:40.109Z,12.58
2023-05-14T06:12:41.692Z,12.51
2023-05-14T06:14:43.145Z,12.40
2023-05-14T06:16:45.030Z,12.39
2023-05-14T06:18:47.238Z,12.36
2023-05-14T06:20:48.705Z,12.39
2023-05-14T06:22:50.238Z,12.39
2023-05-14T06:24:51.796Z,12.37
2023-05-14T06:26:53.240Z,12.38
2023-05-14T06:28:54.691Z,12.43
2023-05-14T06:30:56.182Z,12.43
2023-05-14T06:32:57.672Z,12.43
2023-05-14T06:34:59.194Z,12.43
2023-05-14T06:37:02.850Z,12.41
2023-05-14T06:39:04.457Z,12.44
2023-05-14T06:41:05.885Z,12.46
2023-05-14T06:43:07.409Z,12.50
2023-05-14T06:45:08.965Z,12.50
2023-05-14T06:47:10.510Z,12.52
2023-05-14T06:49:13.589Z,12.50
2023-05-14T06:51:15.122Z,12.43
2023-05-14T06:53:16.717Z,12.40
2023-05-14T06:55:18.244Z,12.45
2023-05-14T06:57:19.681Z,12.44
2023-05-14T06:59:21.183Z,12.45
2023-05-14T07:01:22.655Z,12.46
2023-05-14T07:03:24.138Z,12.39
2023-05-14T07:05:25.720Z,12.25
2023-05-14T07:07:27.203Z,12.28
2023-05-14T07:09:28.737Z,12.33
2023-05-14T07:11:30.294Z,12.40
2023-05-14T07:13:31.749Z,12.50
2023-05-14T07:15:33.235Z,12.54
2023-05-14T07:17:34.784Z,12.61
2023-05-14T07:19:36.363Z,12.65
2023-05-14T07:21:37.830Z,12.56
2023-05-14T07:23:39.330Z,12.53
2023-05-14T07:25:40.922Z,12.52
2023-05-14T07:27:42.379Z,12.55
2023-05-14T07:29:43.930Z,12.56
2023-05-14T07:31:45.466Z,12.55
2023-05-14T07:33:47.000Z,12.55
2023-05-14T07:35:48.485Z,12.37
2023-05-14T07:37:49.976Z,12.38
2023-05-14T07:39:54.235Z,12.19
2023-05-14T07:41:55.689Z,12.19
2023-05-14T07:43:57.241Z,12.28
2023-05-14T07:45:58.735Z,12.40
2023-05-14T07:48:00.312Z,12.55
2023-05-14T07:50:02.115Z,12.63
2023-05-14T07:52:03.635Z,12.69
2023-05-14T07:54:05.148Z,12.70
2023-05-14T07:56:06.807Z,12.76
2023-05-14T07:58:08.283Z,12.82
2023-05-14T08:00:10.008Z,12.88
2023-05-14T08:02:12.949Z,12.84
2023-05-14T08:04:16.352Z,12.89
2023-05-14T08:06:17.889Z,12.78
2023-05-14T08:08:19.415Z,12.70
2023-05-14T08:10:21.214Z,12.72
2023-05-14T08:12:22.998Z,12.75
2023-05-14T08:14:24.479Z,12.72
2023-05-14T08:16:26.276Z,12.70
2023-05-14T08:18:27.821Z,12.62
2023-05-14T08:20:32.013Z,12.55
2023-05-14T08:22:33.508Z,12.52
2023-05-14T08:24:35.186Z,12.51
2023-05-14T08:26:37.038Z,12.50
2023-05-14T08:28:38.466Z,12.45
2023-05-14T08:30:39.916Z,12.52
2023-05-14T08:32:42.446Z,12.59
2023-05-14T08:34:44.181Z,12.63
2023-05-14T08:36:45.760Z,12.72
2023-05-14T08:38:48.505Z,12.76
2023-05-14T08:40:59.784Z,12.74
2023-05-14T08:43:01.250Z,12.68
2023-05-14T08:45:03.484Z,12.60
2023-05-14T08:47:05.007Z,12.57
2023-05-14T08:49:09.340Z,12.62
2023-05-14T08:51:10.878Z,12.55
2023-05-14T08:53:12.301Z,12.55
2023-05-14T08:55:13.798Z,12.59
2023-05-14T08:57:15.460Z,12.65
2023-05-14T08:59:16.935Z,12.69
2023-05-14T09:01:18.855Z,12.73
2023-05-14T09:03:20.680Z,12.78
2023-05-14T09:05:22.196Z,12.81
2023-05-14T09:07:23.889Z,12.89
2023-05-14T09:09:25.487Z,12.70
2023-05-14T09:11:26.932Z,12.59
2023-05-14T09:13:28.480Z,12.55
2023-05-14T09:15:29.959Z,12.62
2023-05-14T09:17:31.514Z,12.58
2023-05-14T09:19:33.018Z,12.64
2023-05-14T09:21:34.713Z,12.60
2023-05-14T09:23:36.319Z,12.59
2023-05-14T09:25:37.766Z,12.48
2023-05-14T09:27:39.331Z,12.51
2023-05-14T09:29:40.805Z,12.56
2023-05-14T09:31:42.267Z,12.56
2023-05-14T09:33:43.721Z,12.59
2023-05-14T09:35:45.297Z,12.68
2023-05-14T09:37:47.586Z,12.77
2023-05-14T09:39:49.068Z,12.84
2023-05-14T09:41:51.880Z,12.95
2023-05-14T09:43:53.422Z,12.97
2023-05-14T09:45:54.915Z,13.00
2023-05-14T09:47:56.529Z,12.97
2023-05-14T09:49:58.348Z,12.89
2023-05-14T09:52:00.124Z,12.91
2023-05-14T09:54:01.596Z,12.94
2023-05-14T09:56:03.709Z,13.02
2023-05-14T09:58:05.977Z,13.02
2023-05-14T10:00:08.861Z,13.00
2023-05-14T10:02:37.868Z,13.06
2023-05-14T10:04:39.602Z,12.88
2023-05-14T10:06:42.533Z,12.86
2023-05-14T10:08:44.624Z,12.83
2023-05-14T10:10:46.078Z,12.75
2023-05-14T10:12:56.857Z,12.74
2023-05-14T10:14:58.371Z,12.76
2023-05-14T10:16:59.871Z,12.73
2023-05-14T10:19:03.395Z,12.68
2023-05-14T10:21:05.807Z,12.68
2023-05-14T10:23:10.434Z,12.65
2023-05-14T10:25:12.086Z,12.67
2023-05-14T10:27:13.544Z,12.66
2023-05-14T10:29:15.024Z,12.63
2023-05-14T10:31:17.405Z,12.64
2023-05-14T10:33:19.162Z,12.72
2023-05-14T10:35:22.868Z,12.80
2023-05-14T10:37:27.333Z,12.86
2023-05-14T10:39:41.432Z,12.85
2023-05-14T10:41:42.858Z,12.77
2023-05-14T10:43:44.466Z,12.19
2023-05-14T10:45:46.146Z,12.09
2023-05-14T10:47:47.671Z,12.24
2023-05-14T10:49:49.572Z,12.32
2023-05-14T10:51:52.868Z,12.45
2023-05-14T10:53:54.354Z,12.42
2023-05-14T10:55:55.778Z,12.47
2023-05-14T10:57:58.656Z,12.61
2023-05-14T11:00:00.552Z,12.71
2023-05-14T11:02:05.085Z,12.56
2023-05-14T11:04:06.677Z,12.03
2023-05-14T11:06:09.121Z,11.62
2023-05-14T11:08:10.618Z,11.62
2023-05-14T11:10:15.739Z,11.46
2023-05-14T11:12:17.392Z,11.44
2023-05-14T11:14:19.494Z,11.43
2023-05-14T11:16:23.959Z,11.51
2023-05-14T11:18:29.209Z,11.38
2023-05-14T11:20:32.793Z,11.28
2023-05-14T11:22:34.728Z,11.29
2023-05-14T11:24:36.166Z,11.40
2023-05-14T11:26:37.779Z,11.50
2023-05-14T11:28:39.397Z,11.56
2023-05-14T11:30:40.996Z,11.65
2023-05-14T11:32:43.249Z,11.73
2023-05-14T11:34:45.002Z,11.87
2023-05-14T11:36:46.621Z,12.02
2023-05-14T11:38:49.110Z,12.01
2023-05-14T11:40:57.434Z,11.95
2023-05-14T11:42:58.962Z,11.95
2023-05-14T11:45:01.362Z,12.01
2023-05-14T11:47:05.000Z,12.09
2023-05-14T11:49:09.647Z,12.15
2023-05-14T11:51:11.142Z,12.11
2023-05-14T11:53:16.152Z,11.93
2023-05-14T11:55:17.878Z,11.92
2023-05-14T11:57:19.812Z,11.89
2023-05-14T11:59:21.537Z,11.60
2023-05-14T12:01:23.167Z,11.75
2023-05-14T12:03:29.705Z,11.97
2023-05-14T12:05:31.627Z,12.24
2023-05-14T12:07:33.201Z,12.36
2023-05-14T12:09:36.405Z,12.44
2023-05-14T12:11:37.976Z,12.62
2023-05-14T12:13:39.555Z,12.79
2023-05-14T12:15:41.214Z,12.91
2023-05-14T12:17:42.758Z,12.96
2023-05-14T12:19:44.776Z,12.54
2023-05-14T12:21:47.398Z,12.56
2023-05-14T12:23:48.907Z,12.64
2023-05-14T12:25:51.352Z,12.75
2023-05-14T12:27:52.776Z,12.74
2023-05-14T12:30:12.878Z,12.89
2023-05-14T12:32:21.984Z,13.12
2023-05-14T12:34:23.499Z,13.21
2023-05-14T12:36:24.961Z,13.33
2023-05-14T12:38:26.393Z,13.17
2023-05-14T12:40:27.955Z,13.18
2023-05-14T12:42:29.401Z,13.31
2023-05-14T12:44:31.328Z,13.44
2023-05-14T12:46:33.117Z,13.51
2023-05-14T12:48:34.655Z,13.51
2023-05-14T12:50:36.164Z,13.50
2023-05-14T12:52:39.694Z,13.34
2023-05-14T12:54:43.504Z,13.18
2023-05-14T12:56:45.040Z,12.74
2023-05-14T12:58:46.995Z,12.78
2023-05-14T13:00:48.456Z,12.70
2023-05-14T13:02:49.977Z,12.77
2023-05-14T13:04:51.499Z,12.85
2023-05-14T13:06:52.982Z,12.73
2023-05-14T13:08:54.462Z,12.72
2023-05-14T13:10:56.291Z,12.42
2023-05-14T13:12:58.260Z,12.53
2023-05-14T13:14:59.764Z,12.41
2023-05-14T13:17:01.341Z,12.45
2023-05-14T13:19:02.885Z,12.47
2023-05-14T13:21:06.443Z,12.49
2023-05-14T13:23:07.966Z,12.50
2023-05-14T13:25:09.805Z,12.48
2023-05-14T13:27:11.558Z,12.61
2023-05-14T13:29:13.100Z,12.75
2023-05-14T13:31:14.928Z,12.88
2023-05-14T13:33:16.437Z,12.95
2023-05-14T13:35:17.984Z,13.02
2023-05-14T13:37:19.732Z,12.98
2023-05-14T13:39:22.784Z,13.02
2023-05-14T13:41:26.226Z,13.10
2023-05-14T13:43:28.557Z,13.05
2023-05-14T13:45:30.017Z,13.07
2023-05-14T13:47:31.603Z,13.09
2023-05-14T13:49:33.139Z,13.18
2023-05-14T13:51:34.801Z,13.11
2023-05-14T13:53:36.274Z,13.10
2023-05-14T13:55:37.789Z,13.12
2023-05-14T13:57:39.844Z,13.15
2023-05-14T13:59:41.537Z,13.18
2023-05-14T14:01:43.419Z,13.12
2023-05-14T14:03:44.938Z,12.91
2023-05-14T14:05:46.450Z,12.75
2023-05-14T14:07:49.720Z,12.70
2023-05-14T14:09:51.906Z,12.50
2023-05-14T14:11:53.451Z,12.48
2023-05-14T14:13:54.950Z,12.33
2023-05-14T14:15:56.901Z,12.28
2023-05-14T14:17:58.486Z,12.27
2023-05-14T14:19:59.999Z,12.35
2023-05-14T14:22:01.484Z,12.35
2023-05-14T14:24:02.979Z,12.36
2023-05-14T14:26:04.463Z,12.36
2023-05-14T14:28:05.934Z,12.36
2023-05-14T14:30:16.994Z,12.37
2023-05-14T14:32:18.470Z,12.38
2023-05-14T14:34:19.953Z,12.45
2023-05-14T14:36:21.452Z,12.49
2023-05-14T14:38:22.847Z,12.44
2023-05-14T14:40:24.590Z,12.45
2023-05-14T14:42:26.490Z,12.47
2023-05-14T14:44:27.964Z,12.48
2023-05-14T14:46:29.446Z,12.43
2023-05-14T14:48:37.484Z,12.49
2023-05-14T14:50:38.932Z,12.41
2023-05-14T14:52:40.926Z,12.45
2023-05-14T14:54:42.875Z,12.44
2023-05-14T14:56:45.927Z,12.47
2023-05-14T14:58:47.448Z,12.58
2023-05-14T15:00:51.253Z,12.64
2023-05-14T15:02:52.825Z,12.69
2023-05-14T15:04:54.860Z,12.73
2023-05-14T15:06:56.423Z,12.80
2023-05-14T15:08:57.882Z,12.45
2023-05-14T15:10:59.566Z,12.38
2023-05-14T15:13:00.966Z,12.38
2023-05-14T15:15:02.443Z,12.39
2023-05-14T15:17:04.050Z,12.35
2023-05-14T15:19:05.714Z,12.35
2023-05-14T15:21:07.273Z,12.43
2023-05-14T15:23:08.795Z,12.46
2023-05-14T15:25:10.495Z,12.46
2023-05-14T15:27:12.015Z,12.47
2023-05-14T15:29:13.466Z,12.52
2023-05-14T15:31:14.914Z,12.56
2023-05-14T15:33:19.638Z,12.50
2023-05-14T15:35:21.278Z,12.50
2023-05-14T15:37:23.886Z,12.49
2023-05-14T15:39:25.341Z,12.46
2023-05-14T15:41:28.780Z,12.52
2023-05-14T15:43:30.303Z,12.55
2023-05-14T15:45:31.825Z,12.52
2023-05-14T15:47:33.588Z,12.56
2023-05-14T15:49:35.118Z,12.59
2023-05-14T15:51:36.636Z,12.59
2023-05-14T15:53:38.155Z,12.61
2023-05-14T15:55:39.714Z,12.62
2023-05-14T15:57:41.164Z,12.65
2023-05-14T15:59:42.768Z,12.63
2023-05-14T16:01:44.593Z,12.66
2023-05-14T16:03:46.281Z,12.68
2023-05-14T16:05:48.592Z,12.67
2023-05-14T16:07:50.026Z,12.69
2023-05-14T16:09:51.821Z,12.57
2023-05-14T16:11:53.346Z,12.34
2023-05-14T16:13:54.796Z,11.98
2023-05-14T16:15:56.438Z,11.95
2023-05-14T16:17:58.027Z,11.99
2023-05-14T16:20:00.040Z,12.05
2023-05-14T16:22:01.472Z,12.09
2023-05-14T16:24:03.302Z,12.18
2023-05-14T16:26:05.572Z,12.14
2023-05-14T16:28:08.020Z,12.09
2023-05-14T16:30:09.704Z,12.02
2023-05-14T16:32:11.199Z,12.05
2023-05-14T16:34:12.679Z,12.04
2023-05-14T16:36:14.120Z,12.06
2023-05-14T16:38:15.537Z,11.93
2023-05-14T16:40:17.904Z,11.98
2023-05-14T16:42:19.412Z,12.00
2023-05-14T16:44:20.995Z,12.07
2023-05-14T16:46:22.528Z,11.96
2023-05-14T16:48:24.102Z,11.89
2023-05-14T16:50:25.660Z,11.81
2023-05-14T16:52:27.133Z,11.91
2023-05-14T16:54:28.768Z,12.00
2023-05-14T16:56:32.398Z,12.08
2023-05-14T16:58:33.898Z,12.14
2023-05-14T17:00:35.441Z,12.18
2023-05-14T17:02:36.916Z,12.26
2023-05-14T17:04:42.046Z,12.33
2023-05-14T17:06:43.714Z,12.11
2023-05-14T17:08:45.192Z,12.04
2023-05-14T17:10:46.652Z,11.95
2023-05-14T17:12:48.125Z,11.88
2023-05-14T17:14:49.576Z,11.86
2023-05-14T17:16:51.044Z,11.83
2023-05-14T17:18:52.559Z,11.85
2023-05-14T17:20:54.064Z,11.90
2023-05-14T17:22:55.543Z,11.99
2023-05-14T17:24:57.011Z,12.01
2023-05-14T17:26:58.435Z,12.09
2023-05-14T17:28:59.958Z,12.18
2023-05-14T17:31:02.131Z,12.23
2023-05-14T17:33:03.842Z,12.26
2023-05-14T17:35:05.772Z,12.33
2023-05-14T17:37:07.313Z,12.37
2023-05-14T17:39:09.196Z,12.37
2023-05-14T17:41:10.747Z,12.39
2023-05-14T17:43:12.226Z,12.42
2023-05-14T17:45:14.529Z,12.41
2023-05-14T17:47:16.092Z,12.39
2023-05-14T17:49:17.640Z,12.26
2023-05-14T17:51:19.092Z,12.25
2023-05-14T17:53:20.566Z,12.31
2023-05-14T17:55:22.206Z,12.32
2023-05-14T17:57:23.979Z,12.37
2023-05-14T17:59:25.605Z,12.40
2023-05-14T18:01:27.088Z,12.26
2023-05-14T18:03:28.763Z,12.09
2023-05-14T18:05:31.763Z,11.96
2023-05-14T18:07:33.276Z,11.93
2023-05-14T18:09:34.777Z,11.90
2023-05-14T18:11:36.287Z,11.90
2023-05-14T18:13:37.776Z,11.94
2023-05-14T18:15:39.347Z,12.00
2023-05-14T18:17:40.916Z,12.08
2023-05-14T18:19:42.858Z,12.12
2023-05-14T18:21:46.679Z,12.17
2023-05-14T18:23:48.383Z,12.21
2023-05-14T18:25:50.113Z,12.28
2023-05-14T18:27:51.600Z,12.31
2023-05-14T18:29:53.385Z,12.14
2023-05-14T18:31:54.847Z,12.04
2023-05-14T18:33:56.311Z,12.07
2023-05-14T18:35:57.848Z,12.12
2023-05-14T18:37:59.539Z,12.17
2023-05-14T18:40:01.405Z,12.11
2023-05-14T18:42:03.132Z,12.05
2023-05-14T18:44:04.635Z,12.01
2023-05-14T18:46:06.191Z,12.03
2023-05-14T18:48:07.716Z,12.11
2023-05-14T18:50:09.322Z,12.17
2023-05-14T18:52:10.835Z,12.21
2023-05-14T18:54:12.281Z,12.25
2023-05-14T18:56:13.903Z,12.25
2023-05-14T18:58:15.395Z,12.24
2023-05-14T19:00:16.984Z,12.28
2023-05-14T19:02:18.651Z,12.29
2023-05-14T19:04:20.171Z,12.28
2023-05-14T19:06:21.680Z,12.20
2023-05-14T19:08:23.292Z,11.91
2023-05-14T19:10:24.727Z,11.78
2023-05-14T19:12:26.807Z,11.59
2023-05-14T19:14:28.273Z,11.70
2023-05-14T19:16:30.524Z,11.83
2023-05-14T19:18:32.079Z,11.94
2023-05-14T19:20:33.593Z,11.75
2023-05-14T19:22:35.046Z,11.56
2023-05-14T19:24:37.780Z,11.28
2023-05-14T19:26:39.246Z,11.18
2023-05-14T19:28:40.773Z,11.10
2023-05-14T19:30:42.235Z,10.99
2023-05-14T19:32:43.743Z,10.90
2023-05-14T19:34:45.221Z,10.97
2023-05-14T19:36:46.670Z,11.16
2023-05-14T19:38:48.295Z,11.32
2023-05-14T19:40:51.142Z,11.45
2023-05-14T19:42:53.165Z,11.60
2023-05-14T19:44:55.890Z,11.69
2023-05-14T19:46:57.747Z,11.80
2023-05-14T19:48:59.308Z,11.86
2023-05-14T19:51:00.723Z,11.92
2023-05-14T19:53:02.318Z,11.94
2023-05-14T19:55:03.884Z,11.84
2023-05-14T19:57:05.782Z,11.91
2023-05-14T19:59:07.265Z,12.01
2023-05-14T20:01:09.347Z,12.05
2023-05-14T20:03:10.969Z,12.11
2023-05-14T20:05:12.481Z,12.17
2023-05-14T20:07:15.619Z,12.24
2023-05-14T20:09:17.255Z,12.30
2023-05-14T20:11:19.615Z,12.34
2023-05-14T20:13:23.125Z,12.34
2023-05-14T20:15:26.433Z,12.34
2023-05-14T20:17:27.967Z,12.32
2023-05-14T20:19:29.510Z,12.12
2023-05-14T20:21:31.644Z,12.09
2023-05-14T20:23:33.735Z,12.13
2023-05-14T20:25:35.325Z,12.07
2023-05-14T20:27:37.032Z,12.09
2023-05-14T20:29:38.552Z,12.17
2023-05-14T20:31:40.109Z,12.23
2023-05-14T20:33:41.616Z,12.31
2023-05-14T20:35:44.176Z,12.34
2023-05-14T20:37:45.818Z,12.37
2023-05-14T20:39:47.365Z,12.39
2023-05-14T20:41:48.851Z,12.39
2023-05-14T20:43:50.506Z,12.39
2023-05-14T20:45:52.055Z,12.40
2023-05-14T20:47:53.594Z,12.39
2023-05-14T20:49:55.156Z,12.33
2023-05-14T20:51:56.579Z,12.34
2023-05-14T20:53:58.110Z,12.35
2023-05-14T20:56:01.325Z,12.32
2023-05-14T20:58:02.774Z,12.26
2023-05-14T21:00:08.093Z,12.31
2023-05-14T21:02:09.912Z,12.32
2023-05-14T21:04:11.692Z,12.37
2023-05-14T21:06:13.389Z,12.39
2023-05-14T21:08:15.074Z,12.43
2023-05-14T21:10:17.072Z,12.45
2023-05-14T21:12:19.208Z,12.47
2023-05-14T21:14:20.858Z,12.47
2023-05-14T21:16:22.474Z,12.51
2023-05-14T21:18:27.010Z,12.52
2023-05-14T21:20:28.577Z,12.51
2023-05-14T21:22:29.979Z,12.43
2023-05-14T21:24:31.404Z,12.42
2023-05-14T21:26:32.928Z,12.40
2023-05-14T21:28:34.376Z,12.38
2023-05-14T21:30:35.831Z,12.35
2023-05-14T21:32:37.279Z,12.36
2023-05-14T21:34:38.786Z,12.35
2023-05-14T21:36:40.318Z,12.37
2023-05-14T21:38:41.800Z,12.38
2023-05-14T21:40:43.309Z,12.40
2023-05-14T21:42:44.762Z,12.40
2023-05-14T21:44:46.387Z,12.43
2023-05-14T21:46:47.919Z,12.43
2023-05-14T21:48:49.412Z,12.45
2023-05-14T21:50:50.911Z,12.48
2023-05-14T21:52:52.428Z,12.48
2023-05-14T21:54:53.863Z,12.48
2023-05-14T21:56:55.288Z,12.46
2023-05-14T21:58:57.151Z,12.42
2023-05-14T22:00:58.674Z,12.42
2023-05-14T22:03:00.206Z,12.43
2023-05-14T22:05:01.875Z,12.43
2023-05-14T22:07:03.587Z,12.40
2023-05-14T22:09:05.477Z,12.39
2023-05-14T22:11:06.945Z,12.35
2023-05-14T22:13:08.404Z,12.32
2023-05-14T22:15:10.132Z,12.14
2023-05-14T22:17:12.748Z,11.97
2023-05-14T22:19:15.919Z,11.95
2023-05-14T22:21:17.447Z,11.94
2023-05-14T22:23:18.952Z,11.96
2023-05-14T22:25:20.531Z,12.01
2023-05-14T22:27:23.023Z,12.08
2023-05-14T22:29:24.689Z,12.11
2023-05-14T22:31:26.135Z,12.07
2023-05-14T22:33:27.649Z,12.02
2023-05-14T22:35:29.134Z,12.05
2023-05-14T22:37:30.819Z,12.05
2023-05-14T22:39:32.272Z,11.97
2023-05-14T22:41:33.747Z,11.97
2023-05-14T22:43:35.214Z,12.03
2023-05-14T22:45:36.722Z,12.06
2023-05-14T22:47:38.527Z,12.11
2023-05-14T22:49:40.476Z,12.14
2023-05-14T22:51:42.411Z,12.13
2023-05-14T22:53:43.901Z,12.14
2023-05-14T22:55:45.634Z,12.14
2023-05-14T22:57:47.080Z,12.12
2023-05-14T22:59:49.008Z,12.05
2023-05-14T23:01:50.972Z,12.04
2023-05-14T23:03:52.553Z,12.05
2023-05-14T23:05:54.015Z,12.09
2023-05-14T23:07:55.536Z,12.11
2023-05-14T23:09:57.022Z,12.14
2023-05-14T23:11:58.530Z,12.13
2023-05-14T23:13:59.988Z,12.14
2023-05-14T23:16:01.589Z,12.14
2023-05-14T23:18:03.137Z,12.00
2023-05-14T23:20:10.540Z,11.94
2023-05-14T23:22:12.587Z,12.00
2023-05-14T23:24:14.098Z,12.05
2023-05-14T23:26:15.710Z,12.06
2023-05-14T23:28:17.302Z,12.11
2023-05-14T23:30:18.802Z,12.12
2023-05-14T23:32:20.423Z,12.18
2023-05-14T23:34:22.243Z,12.18
2023-05-14T23:36:23.976Z,12.23
2023-05-14T23:38:25.499Z,12.26
2023-05-14T23:40:26.961Z,12.28
2023-05-14T23:42:28.513Z,12.27
2023-05-14T23:44:29.970Z,12.29
2023-05-14T23:46:31.632Z,12.32
2023-05-14T23:48:33.248Z,12.31
2023-05-14T23:50:34.862Z,12.28
2023-05-14T23:52:36.394Z,12.26
2023-05-14T23:54:38.916Z,12.28
2023-05-14T23:56:40.644Z,12.28
2023-05-14T23:58:42.130Z,12.29
